2005 EPSILON (2005333N32311)


On this page: IBTrACS data - Map and Plots - Positions - Intensities - Original source data

Summary

Start Nov 29
End Dec 9
Basin NA
LMI 75 kt
Sources hurdat_atl
atcf
In WMO? Yes
Previous storm 2005 BAAZ (NI)
Previous in basin 2005 DELTA (NA)
Concurrent storms 2006 ALVIN (SI)
2005 DELTA (NA)
2005 BAAZ (NI)
2005 EPSILON (NA)
2005 FANOOS (NI)
Next in basin Missing
Next storm 2005 FANOOS (NI)

top of page IBTrACS Data: File Access

top of page HURSAT Data: File Access

Image of storm

top of page Plots:

Map of storm track will not appear if FTP is down
Time series of cyclone Maximum Sustained Wind will not appear if FTP is down
Time series of cyclone Minimum Central Pressure will not appear if FTP is down

top of page Track Data:Position

hurdat_atl atcf
Date Lat Lon Lat Lon
2005-11-29 06:00:00 31.5 -49.2 31.5 -49.2
2005-11-29 12:00:00 31.6 -50.0 31.6 -50.0
2005-11-29 18:00:00 31.4 -50.8 31.4 -50.8
2005-11-30 00:00:00 31.4 -51.5 31.4 -51.5
2005-11-30 06:00:00 31.1 -52.5 31.1 -52.5
2005-11-30 12:00:00 30.8 -53.5 30.8 -53.5
2005-11-30 18:00:00 30.1 -54.2 30.1 -54.2
2005-12-01 00:00:00 29.7 -53.8 29.7 -53.8
2005-12-01 06:00:00 30.0 -52.7 30.0 -52.7
2005-12-01 12:00:00 30.8 -51.9 30.8 -51.9
2005-12-01 18:00:00 31.4 -51.3 31.4 -51.3
2005-12-02 00:00:00 31.9 -50.6 31.9 -50.6
2005-12-02 06:00:00 32.5 -49.8 32.5 -49.8
2005-12-02 12:00:00 33.2 -48.9 33.2 -48.9
2005-12-02 18:00:00 33.9 -47.9 33.9 -47.9
2005-12-03 00:00:00 34.3 -47.1 34.3 -47.1
2005-12-03 06:00:00 34.5 -46.2 34.5 -46.2
2005-12-03 12:00:00 34.5 -45.0 34.5 -45.0
2005-12-03 18:00:00 34.5 -43.7 34.5 -43.7
2005-12-04 00:00:00 34.3 -42.3 34.3 -42.3
2005-12-04 06:00:00 34.4 -41.1 34.4 -41.1
2005-12-04 12:00:00 34.3 -39.8 34.3 -39.8
2005-12-04 18:00:00 34.3 -38.8 34.3 -38.8
2005-12-05 00:00:00 34.2 -37.8 34.2 -37.8
2005-12-05 06:00:00 34.0 -36.7 34.0 -36.7
hurdat_atl atcf
2005-12-05 12:00:00 33.8 -35.5 33.8 -35.5
2005-12-05 18:00:00 33.7 -34.6 33.7 -34.6
2005-12-06 00:00:00 33.4 -33.8 33.4 -33.8
2005-12-06 06:00:00 33.1 -33.7 33.1 -33.7
2005-12-06 12:00:00 32.3 -33.7 32.3 -33.7
2005-12-06 18:00:00 31.6 -34.2 31.6 -34.2
2005-12-07 00:00:00 30.8 -34.9 30.8 -34.9
2005-12-07 06:00:00 30.1 -36.0 30.1 -36.0
2005-12-07 12:00:00 29.4 -37.1 29.4 -37.1
2005-12-07 18:00:00 28.7 -38.1 28.7 -38.1
2005-12-08 00:00:00 28.2 -38.8 28.2 -38.8
2005-12-08 06:00:00 27.4 -39.3 27.4 -39.3
2005-12-08 12:00:00 26.5 -40.0 26.5 -40.0
2005-12-08 18:00:00 25.9 -40.5 25.9 -40.5
2005-12-09 00:00:00 25.5 -40.6 25.5 -40.6
2005-12-09 06:00:00 25.1 -40.4 25.1 -40.4
2005-12-09 12:00:00 24.7 -40.1 24.7 -40.1
2005-12-09 18:00:00 24.7 -39.2 24.7 -39.2

top of pageTrack Data:Intensity

hurdat_atl atcf
Date Wind Pres Wind Pres
2005-11-29 06:00:00 45. 993. 45. 993.
2005-11-29 12:00:00 45. 993. 45. 993.
2005-11-29 18:00:00 45. 993. 45. 993.
2005-11-30 00:00:00 45. 993. 45. 993.
2005-11-30 06:00:00 50. 992. 50. 992.
2005-11-30 12:00:00 55. 991. 55. 991.
2005-11-30 18:00:00 50. 991. 50. 991.
2005-12-01 00:00:00 50. 992. 50. 992.
2005-12-01 06:00:00 50. 992. 50. 992.
2005-12-01 12:00:00 50. 992. 50. 992.
2005-12-01 18:00:00 55. 991. 55. 991.
2005-12-02 00:00:00 55. 991. 55. 991.
2005-12-02 06:00:00 55. 990. 55. 990.
2005-12-02 12:00:00 60. 989. 60. 989.
2005-12-02 18:00:00 65. 987. 65. 987.
2005-12-03 00:00:00 65. 987. 65. 987.
2005-12-03 06:00:00 65. 987. 65. 987.
2005-12-03 12:00:00 65. 987. 65. 987.
2005-12-03 18:00:00 65. 987. 65. 987.
2005-12-04 00:00:00 65. 987. 65. 987.
2005-12-04 06:00:00 65. 987. 65. 987.
2005-12-04 12:00:00 70. 984. 70. 984.
2005-12-04 18:00:00 70. 985. 70. 985.
2005-12-05 00:00:00 70. 985. 70. 985.
2005-12-05 06:00:00 75. 981. 75. 981.
hurdat_atl atcf
2005-12-05 12:00:00 75. 981. 75. 981.
2005-12-05 18:00:00 70. 985. 70. 985.
2005-12-06 00:00:00 65. 986. 65. 986.
2005-12-06 06:00:00 65. 986. 65. 986.
2005-12-06 12:00:00 65. 987. 65. 987.
2005-12-06 18:00:00 65. 987. 65. 987.
2005-12-07 00:00:00 65. 987. 65. 987.
2005-12-07 06:00:00 65. 987. 65. 987.
2005-12-07 12:00:00 65. 987. 65. 987.
2005-12-07 18:00:00 60. 991. 60. 991.
2005-12-08 00:00:00 50. 997. 50. 997.
2005-12-08 06:00:00 35. 1003. 35. 1003.
2005-12-08 12:00:00 30. 1005. 30. 1005.
2005-12-08 18:00:00 30. 1006. 30. 1006.
2005-12-09 00:00:00 30. 1007. 30. 1007.
2005-12-09 06:00:00 25. 1008. 25. 1008.
2005-12-09 12:00:00 25. 1009. 25. 1009.
2005-12-09 18:00:00 25. 1009. 25. 1009.

top of page Links to source data

Source Source file Format
hurdat_atl tracks1851to2011.txt:1376:EPSILON HURDAT
atcf bal302005.dat ATCF